Time;durP1;ratioP1;P1;durP2;ratioP2;P2;SDS_P1;SDS_P2;PMS_P1;PMS_P2;Temp;Humidity;BMP_temperature;BMP_pressure;BME280_temperature;BME280_humidity;BME280_pressure;Samples;Min_cycle;Max_cycle;Signal;HPM_P1;HPM_P2
2024/04/13 00:03:54;;;;;;;19.10;10.30;;;;;;;16.00;55.47;99943.63;232559;201;138421;-56
2024/04/13 00:08:57;;;;;;;22.80;10.50;;;;;;;15.92;55.66;99938.52;232448;201;136959;-57
2024/04/13 00:14:00;;;;;;;19.80;10.50;;;;;;;15.81;56.03;99939.55;232360;203;151725;-57
2024/04/13 00:19:04;;;;;;;18.80;11.10;;;;;;;15.74;56.29;99948.30;232518;205;137252;-57
2024/04/13 00:24:07;;;;;;;22.20;10.50;;;;;;;15.69;56.54;99949.58;232534;205;140100;-57
2024/04/13 00:29:10;;;;;;;16.90;11.20;;;;;;;15.61;56.82;99948.27;232487;203;151978;-57
2024/04/13 00:34:13;;;;;;;20.10;10.90;;;;;;;15.53;57.04;99940.54;232577;202;138530;-56
2024/04/13 00:39:17;;;;;;;23.20;10.80;;;;;;;15.42;57.29;99943.49;232505;202;137644;-57
2024/04/13 00:44:22;;;;;;;19.30;11.20;;;;;;;15.34;57.59;99938.83;232473;205;151269;-55
2024/04/13 00:49:26;;;;;;;21.30;10.50;;;;;;;15.26;57.96;99937.20;232476;202;137059;-57
2024/04/13 00:54:31;;;;;;;19.50;11.10;;;;;;;15.17;58.16;99943.16;232526;205;137206;-56
2024/04/13 00:59:35;;;;;;;20.20;10.70;;;;;;;15.10;58.56;99944.38;232536;205;153766;-57
2024/04/13 01:04:42;;;;;;;21.90;11.10;;;;;;;15.01;58.80;99943.17;232671;205;137188;-56
2024/04/13 01:09:46;;;;;;;22.30;11.60;;;;;;;14.92;59.24;99944.63;232586;203;137669;-58
2024/04/13 01:14:49;;;;;;;20.90;11.30;;;;;;;14.89;59.45;99941.95;232473;206;151903;-56
2024/04/13 01:19:51;;;;;;;21.10;10.50;;;;;;;14.89;59.70;99941.27;232597;203;138438;-56
2024/04/13 01:24:55;;;;;;;19.80;11.20;;;;;;;14.82;59.87;99941.57;232551;198;140808;-57
2024/04/13 01:29:59;;;;;;;19.90;11.20;;;;;;;14.74;60.17;99941.04;232606;202;151035;-56
2024/04/13 01:35:10;;;;;;;28.00;12.10;;;;;;;14.68;60.45;99937.81;232480;201;138355;-55
2024/04/13 01:40:13;;;;;;;24.30;11.70;;;;;;;14.61;60.75;99932.02;232679;201;137881;-56
2024/04/13 01:45:16;;;;;;;21.40;11.20;;;;;;;14.54;60.89;99926.21;232538;201;151564;-55
2024/04/13 01:50:19;;;;;;;22.50;12.00;;;;;;;14.51;61.17;99927.84;232515;202;138029;-56
2024/04/13 01:55:22;;;;;;;25.40;12.10;;;;;;;14.49;61.35;99923.33;232498;202;138419;-57
2024/04/13 02:00:24;;;;;;;25.60;12.20;;;;;;;14.44;61.54;99919.30;232433;199;151391;-57
2024/04/13 02:05:27;;;;;;;20.90;11.70;;;;;;;14.41;61.67;99920.95;232552;205;137904;-57
2024/04/13 02:10:31;;;;;;;20.80;11.80;;;;;;;14.36;61.76;99921.05;232753;202;140779;-56
2024/04/13 02:15:34;;;;;;;20.90;12.30;;;;;;;14.29;62.02;99910.50;232453;201;151255;-57
2024/04/13 02:20:37;;;;;;;22.60;11.60;;;;;;;14.24;62.18;99910.94;232457;202;138040;-57
2024/04/13 02:25:45;;;;;;;21.40;11.60;;;;;;;14.20;62.25;99903.50;232543;202;137972;-57
2024/04/13 02:30:48;;;;;;;18.80;10.10;;;;;;;14.22;62.23;99904.28;232492;205;151769;-56
2024/04/13 02:35:59;;;;;;;24.70;11.00;;;;;;;14.20;62.29;99908.88;232510;202;137376;-58
2024/04/13 02:41:05;;;;;;;16.60;10.50;;;;;;;14.20;62.36;99908.89;232492;205;138636;-58
2024/04/13 02:46:09;;;;;;;19.30;10.30;;;;;;;14.20;62.35;99906.77;232645;203;152248;-58
2024/04/13 02:51:14;;;;;;;20.00;11.10;;;;;;;14.16;62.43;99903.63;232468;205;137791;-57
2024/04/13 02:56:17;;;;;;;24.30;10.90;;;;;;;14.11;62.51;99901.93;232507;205;137524;-57
2024/04/13 03:01:20;;;;;;;20.10;10.50;;;;;;;14.08;62.63;99904.29;232499;201;151487;-56
2024/04/13 03:06:23;;;;;;;24.70;12.30;;;;;;;14.06;62.77;99916.91;232476;205;138088;-58
2024/04/13 03:11:26;;;;;;;19.50;11.30;;;;;;;14.09;62.71;99918.31;232474;202;137129;-57
2024/04/13 03:16:29;;;;;;;22.10;11.60;;;;;;;14.10;62.68;99926.84;232670;205;151498;-57
2024/04/13 03:21:35;;;;;;;23.00;11.70;;;;;;;14.05;62.61;99930.53;232473;202;139200;-58
2024/04/13 03:26:38;;;;;;;22.10;11.90;;;;;;;14.01;62.70;99928.65;232519;203;137668;-57
2024/04/13 03:31:41;;;;;;;21.80;12.40;;;;;;;13.95;62.82;99930.09;232489;202;151908;-58
2024/04/13 03:36:44;;;;;;;21.00;12.30;;;;;;;13.93;62.96;99937.14;232483;205;140877;-56
2024/04/13 03:41:48;;;;;;;22.60;13.00;;;;;;;13.90;63.06;99938.91;232536;205;142049;-57
2024/04/13 03:46:51;;;;;;;21.00;12.50;;;;;;;13.88;63.17;99937.50;232669;205;151260;-55
2024/04/13 03:51:56;;;;;;;22.30;13.50;;;;;;;13.86;63.24;99930.60;232568;200;137740;-57
2024/04/13 03:56:59;;;;;;;26.40;13.30;;;;;;;13.85;63.40;99933.04;232483;202;138074;-58
2024/04/13 04:02:02;;;;;;;20.30;13.20;;;;;;;13.82;63.53;99927.30;232529;202;151562;-56
2024/04/13 04:07:05;;;;;;;21.10;13.20;;;;;;;13.82;63.68;99924.98;232488;198;137759;-56
2024/04/13 04:12:09;;;;;;;18.50;12.00;;;;;;;13.84;63.67;99922.33;232556;202;141030;-56
2024/04/13 04:17:12;;;;;;;18.80;11.10;;;;;;;13.91;63.65;99921.73;232541;201;151495;-56
2024/04/13 04:22:15;;;;;;;90.50;75.10;;;;;;;14.05;63.47;99919.27;232743;202;138056;-61
2024/04/13 04:27:19;;;;;;;108.80;76.20;;;;;;;14.23;63.28;99928.15;232514;205;138241;-60
2024/04/13 04:32:23;;;;;;;181.10;122.80;;;;;;;14.27;63.14;99933.42;232499;200;151219;-60
2024/04/13 04:37:26;;;;;;;19.80;11.70;;;;;;;14.35;62.83;99946.48;232569;202;138235;-59
2024/04/13 04:42:29;;;;;;;19.20;10.20;;;;;;;14.40;62.38;99946.67;232688;198;138573;-60
2024/04/13 04:47:33;;;;;;;15.70;9.80;;;;;;;14.43;62.09;99946.85;232484;201;151404;-59
2024/04/13 04:52:36;;;;;;;16.00;10.00;;;;;;;14.44;61.94;99946.81;232662;199;136930;-60
2024/04/13 04:57:41;;;;;;;;;;;;;;;14.50;61.87;99952.71;232487;202;137512;-60
2024/04/13 05:02:45;;;;;;;16.80;9.10;;;;;;;14.56;61.72;99958.94;232624;202;152085;-61
2024/04/13 05:07:48;;;;;;;25.40;13.30;;;;;;;14.62;61.58;99955.16;232440;198;137131;-58
2024/04/13 05:12:55;;;;;;;14.20;8.80;;;;;;;14.68;61.43;99959.79;232517;202;137203;-63
2024/04/13 05:17:58;;;;;;;14.40;8.90;;;;;;;14.71;61.30;99962.08;232569;202;151469;-62
2024/04/13 05:23:01;;;;;;;15.40;8.00;;;;;;;14.79;61.17;99961.40;232521;205;138307;-61
2024/04/13 05:28:04;;;;;;;13.20;7.70;;;;;;;14.88;60.82;99957.59;232683;205;137899;-63
2024/04/13 05:33:07;;;;;;;14.70;7.80;;;;;;;14.93;60.71;99957.31;232605;202;152922;-61
2024/04/13 05:38:11;;;;;;;16.30;8.40;;;;;;;14.94;60.73;99954.18;232410;202;138008;-63
2024/04/13 05:43:14;;;;;;;16.10;8.40;;;;;;;14.99;60.69;99954.96;232534;202;137370;-60
2024/04/13 05:48:21;;;;;;;12.60;8.00;;;;;;;15.08;60.62;99950.95;232542;202;151412;-61
2024/04/13 05:53:25;;;;;;;16.90;8.20;;;;;;;15.22;60.44;99949.86;232513;203;136902;-60
2024/04/13 05:58:27;;;;;;;15.00;8.00;;;;;;;15.30;59.83;99948.93;232627;203;137746;-65
2024/04/13 06:03:30;;;;;;;15.50;8.60;;;;;;;15.44;60.61;99939.95;232620;205;151676;-44
2024/04/13 06:08:33;;;;;;;13.80;7.40;;;;;;;15.79;59.78;99936.86;232403;205;137231;-58
2024/04/13 06:13:36;;;;;;;11.00;6.80;;;;;;;15.82;58.11;99932.70;232478;203;137268;-59
2024/04/13 06:18:39;;;;;;;12.80;7.90;;;;;;;15.77;57.82;99936.47;232493;205;152405;-58
2024/04/13 06:23:42;;;;;;;16.80;7.60;;;;;;;15.78;57.67;99949.44;232501;201;137379;-58
2024/04/13 06:28:45;;;;;;;15.50;7.60;;;;;;;15.88;58.00;99935.16;232662;205;138077;-58
2024/04/13 06:33:48;;;;;;;15.20;7.70;;;;;;;16.02;57.60;99933.63;232528;205;151432;-56
2024/04/13 06:38:52;;;;;;;15.20;7.50;;;;;;;16.14;57.45;99933.34;232481;202;137825;-57
2024/04/13 06:43:55;;;;;;;35.00;27.10;;;;;;;16.31;57.19;99930.19;232465;201;136910;-45
2024/04/13 06:48:58;;;;;;;10.20;6.80;;;;;;;16.52;57.72;99934.73;232581;205;151674;-47
2024/04/13 06:54:01;;;;;;;11.90;7.40;;;;;;;16.76;57.69;99938.34;232378;202;138176;-48
2024/04/13 06:59:04;;;;;;;13.50;6.90;;;;;;;17.05;57.36;99938.55;232465;205;139524;-46
2024/04/13 07:04:07;;;;;;;13.30;7.10;;;;;;;17.31;56.73;99935.20;232722;205;151593;-44
2024/04/13 07:09:11;;;;;;;18.80;6.70;;;;;;;17.53;56.03;99938.59;232498;198;138202;-45
2024/04/13 07:14:14;;;;;;;15.00;7.30;;;;;;;17.64;55.78;99937.16;232595;202;139321;-43
2024/04/13 07:19:20;;;;;;;14.30;7.40;;;;;;;17.71;55.26;99935.32;232474;202;151852;-57
2024/04/13 07:24:23;;;;;;;13.00;6.70;;;;;;;17.65;54.96;99935.13;232523;205;138707;-57
2024/04/13 07:29:27;;;;;;;12.60;6.80;;;;;;;17.58;55.48;99932.05;232483;203;138101;-56
2024/04/13 07:34:30;;;;;;;13.50;6.70;;;;;;;17.58;55.61;99924.56;232640;203;152165;-58
2024/04/13 07:39:33;;;;;;;127.60;82.40;;;;;;;17.56;55.75;99922.36;232475;202;137189;-57
2024/04/13 07:44:36;;;;;;;23.40;12.30;;;;;;;17.65;56.23;99925.95;232487;205;137530;-58
2024/04/13 07:49:41;;;;;;;;;;;;;;;17.82;56.36;99927.89;232505;202;151167;-51
2024/04/13 07:54:45;;;;;;;12.80;7.70;;;;;;;17.98;56.37;99920.89;232535;203;135473;-49
2024/04/13 07:59:48;;;;;;;14.20;9.80;;;;;;;18.13;56.28;99918.25;232508;206;137190;-57
2024/04/13 08:04:51;;;;;;;17.80;9.20;;;;;;;18.19;56.33;99911.69;232695;198;152203;-57
2024/04/13 08:09:54;;;;;;;11.50;8.20;;;;;;;18.32;56.10;99903.48;232628;199;137877;-57
2024/04/13 08:14:57;;;;;;;41.90;30.10;;;;;;;18.54;56.07;99894.91;232624;201;137504;-46
2024/04/13 08:20:01;;;;;;;14.60;9.00;;;;;;;18.83;55.14;99901.86;232370;206;153091;-58
2024/04/13 08:25:04;;;;;;;12.90;8.50;;;;;;;19.00;54.64;99896.34;232478;205;137788;-60
2024/04/13 08:30:09;;;;;;;13.60;8.60;;;;;;;19.07;54.40;99891.63;232533;202;138567;-60
2024/04/13 08:35:12;;;;;;;78.80;59.70;;;;;;;19.09;54.21;99895.00;232445;202;152190;-59
2024/04/13 08:40:14;;;;;;;13.40;9.10;;;;;;;19.15;54.25;99899.94;232608;202;136963;-58
2024/04/13 08:45:17;;;;;;;13.00;8.70;;;;;;;19.23;54.24;99894.56;232388;201;138059;-58
2024/04/13 08:50:21;;;;;;;13.40;8.00;;;;;;;19.28;53.74;99905.13;232557;202;151470;-59
2024/04/13 08:55:25;;;;;;;26.60;8.40;;;;;;;19.33;53.70;99899.33;232556;198;137500;-58
2024/04/13 09:00:28;;;;;;;14.30;7.60;;;;;;;19.47;53.45;99895.05;232547;202;137080;-59
2024/04/13 09:05:31;;;;;;;15.20;8.50;;;;;;;19.67;53.22;99889.09;232559;205;151359;-58
2024/04/13 09:10:41;;;;;;;11.80;7.80;;;;;;;19.79;52.58;99892.27;232673;205;137203;-44
2024/04/13 09:15:44;;;;;;;22.50;15.70;;;;;;;19.94;52.32;99891.22;232613;205;138073;-46
2024/04/13 09:20:49;;;;;;;17.30;7.80;;;;;;;20.01;51.94;99885.90;232443;202;151784;-48
2024/04/13 09:26:05;;;;;;;15.40;6.30;;;;;;;20.06;51.79;99881.64;232523;202;138035;-47
2024/04/13 09:31:09;;;;;;;17.60;6.00;;;;;;;20.20;51.25;99877.74;232480;203;136920;-45
2024/04/13 09:36:20;;;;;;;15.70;5.30;;;;;;;20.26;49.59;99876.34;232528;206;151399;-45
2024/04/13 09:41:24;;;;;;;8.70;5.20;;;;;;;20.29;49.07;99874.56;232512;201;137251;-45
2024/04/13 09:46:27;;;;;;;11.00;4.60;;;;;;;20.34;49.07;99873.38;232624;203;137779;-47
2024/04/13 09:51:31;;;;;;;16.40;4.70;;;;;;;20.55;49.09;99865.96;232527;199;151266;-48
2024/04/13 09:56:35;;;;;;;21.70;12.00;;;;;;;20.64;48.41;99856.39;232501;202;140259;-47
2024/04/13 10:01:39;;;;;;;10.60;4.50;;;;;;;20.60;48.52;99851.48;232493;202;137728;-47
2024/04/13 10:06:47;;;;;;;10.50;4.90;;;;;;;20.84;48.49;99853.07;232425;203;151311;-60
2024/04/13 10:11:52;;;;;;;15.20;4.60;;;;;;;20.98;47.10;99857.20;232406;203;137151;-49
2024/04/13 10:17:01;;;;;;;9.80;3.70;;;;;;;20.98;46.99;99853.87;232645;202;138093;-50
2024/04/13 10:22:05;;;;;;;8.10;3.60;;;;;;;21.02;47.23;99858.11;232631;201;151286;-47
2024/04/13 10:27:23;;;;;;;12.30;4.50;;;;;;;21.03;46.73;99859.58;232477;204;137732;-57
2024/04/13 10:32:26;;;;;;;8.20;4.30;;;;;;;20.99;47.06;99857.96;232541;205;137421;-48
2024/04/13 10:37:34;;;;;;;7.40;3.60;;;;;;;21.05;47.14;99847.32;232510;205;151406;-47
2024/04/13 10:42:38;;;;;;;5.20;3.10;;;;;;;21.31;46.88;99833.73;232516;203;137459;-46
2024/04/13 10:47:41;;;;;;;10.20;3.00;;;;;;;21.58;45.48;99825.62;232587;201;137883;-44
2024/04/13 10:52:45;;;;;;;27.90;20.00;;;;;;;21.81;44.72;99815.39;232687;198;151225;-44
2024/04/13 10:57:49;;;;;;;9.20;3.40;;;;;;;22.07;45.01;99798.98;232560;202;138078;-47
2024/04/13 11:02:54;;;;;;;9.90;2.40;;;;;;;22.21;44.29;99794.56;232575;202;137209;-46
2024/04/13 11:07:57;;;;;;;8.50;2.10;;;;;;;22.35;43.48;99792.63;232583;197;152264;-45
2024/04/13 11:13:00;;;;;;;10.90;5.60;;;;;;;22.45;42.39;99787.50;232392;206;137965;-49
2024/04/13 11:18:04;;;;;;;49.80;37.10;;;;;;;22.53;40.83;99789.64;232448;203;141030;-44
2024/04/13 11:23:09;;;;;;;8.30;2.30;;;;;;;22.61;41.43;99781.21;232513;202;151389;-48
2024/04/13 11:28:12;;;;;;;4.40;2.30;;;;;;;22.78;41.75;99771.14;232683;202;138351;-47
2024/04/13 11:33:15;;;;;;;5.40;2.00;;;;;;;22.98;41.65;99764.48;232510;202;137352;-47
2024/04/13 11:38:18;;;;;;;4.30;1.90;;;;;;;23.20;41.00;99760.41;232514;201;151420;-47
2024/04/13 11:43:21;;;;;;;4.80;2.00;;;;;;;23.24;41.09;99759.02;232212;204;137877;-49
2024/04/13 11:48:25;;;;;;;5.50;2.00;;;;;;;23.19;40.59;99759.34;232388;206;137729;-46
2024/04/13 11:53:28;;;;;;;4.30;1.90;;;;;;;23.08;40.60;99754.92;232514;206;151978;-47
2024/04/13 11:58:31;;;;;;;3.80;1.80;;;;;;;23.05;40.02;99748.39;232563;201;137964;-44
2024/04/13 12:03:34;;;;;;;5.00;2.30;;;;;;;23.03;40.18;99746.91;232450;204;136854;-45
2024/04/13 12:08:37;;;;;;;6.80;2.20;;;;;;;23.05;40.21;99743.46;232521;203;151846;-42
2024/04/13 12:13:40;;;;;;;11.60;7.40;;;;;;;23.08;39.85;99744.97;232486;206;137506;-42
2024/04/13 12:18:43;;;;;;;6.30;2.30;;;;;;;23.26;39.00;99741.07;232514;203;138068;-43
2024/04/13 12:23:46;;;;;;;3.60;1.40;;;;;;;23.49;38.51;99728.08;232402;204;151226;-45
2024/04/13 12:28:49;;;;;;;4.90;1.70;;;;;;;23.69;37.83;99717.92;232641;203;136817;-42
2024/04/13 12:33:52;;;;;;;4.90;1.90;;;;;;;23.83;37.98;99713.17;232484;203;138013;-43
2024/04/13 12:38:55;;;;;;;5.30;2.00;;;;;;;24.04;37.73;99706.77;232410;203;157549;-43
2024/04/13 12:43:58;;;;;;;38.00;27.90;;;;;;;24.09;37.17;99709.54;232359;200;137938;-44
2024/04/13 12:49:03;;;;;;;9.60;3.40;;;;;;;24.15;36.99;99699.77;232337;207;138210;-43
2024/04/13 12:54:07;;;;;;;5.60;1.90;;;;;;;24.23;37.31;99686.99;232414;206;154960;-43
2024/04/13 12:59:10;;;;;;;8.30;2.10;;;;;;;24.44;36.87;99689.98;232388;204;138296;-42
2024/04/13 13:04:13;;;;;;;15.60;2.30;;;;;;;24.46;36.01;99688.83;232550;207;140255;-44
2024/04/13 13:09:16;;;;;;;4.50;1.90;;;;;;;24.55;36.01;99677.95;232430;207;151473;-42
2024/04/13 13:14:20;;;;;;;5.30;2.00;;;;;;;24.71;35.47;99672.43;232410;203;139663;-43
2024/04/13 13:19:23;;;;;;;107.40;84.70;;;;;;;24.95;35.60;99667.46;232456;199;138104;-42
2024/04/13 13:24:26;;;;;;;4.90;2.50;;;;;;;25.17;34.78;99652.73;232397;203;152021;-42
2024/04/13 13:29:29;;;;;;;4.80;1.80;;;;;;;25.24;34.16;99645.55;232435;203;137435;-43
2024/04/13 13:34:32;;;;;;;4.70;2.20;;;;;;;25.31;34.24;99638.45;232600;203;137330;-44
2024/04/13 13:39:35;;;;;;;4.90;1.90;;;;;;;25.22;34.49;99636.35;232346;204;151943;-43
2024/04/13 13:44:38;;;;;;;7.20;1.80;;;;;;;25.24;34.24;99627.15;232381;204;139296;-42
2024/04/13 13:49:41;;;;;;;4.90;1.80;;;;;;;25.23;33.22;99626.80;232416;207;137435;-42
2024/04/13 13:54:44;;;;;;;7.20;2.00;;;;;;;25.13;33.21;99627.75;232526;203;152101;-43
2024/04/13 13:59:47;;;;;;;47.10;41.40;;;;;;;25.06;33.43;99630.94;232342;203;136924;-45
2024/04/13 14:04:50;;;;;;;5.90;2.40;;;;;;;25.03;33.92;99615.31;232616;203;138131;-44
2024/04/13 14:09:53;;;;;;;7.20;2.20;;;;;;;24.98;33.68;99610.73;232411;207;151463;-44
2024/04/13 14:14:56;;;;;;;5.90;2.00;;;;;;;24.98;33.60;99614.20;232488;203;137197;-45
2024/04/13 14:20:00;;;;;;;4.80;2.00;;;;;;;24.85;33.46;99620.05;232433;207;137316;-43
2024/04/13 14:25:03;;;;;;;3.20;1.80;;;;;;;24.72;33.69;99613.13;232518;203;151069;-47
2024/04/13 14:30:07;;;;;;;10.20;2.50;;;;;;;24.52;33.82;99611.62;232302;207;137626;-44
2024/04/13 14:35:10;;;;;;;41.40;36.90;;;;;;;24.33;34.28;99614.27;232461;204;137770;-43
2024/04/13 14:40:13;;;;;;;6.00;2.20;;;;;;;24.12;34.86;99605.24;232556;203;151579;-45
2024/04/13 14:45:16;;;;;;;5.10;2.00;;;;;;;23.96;35.60;99605.05;232408;203;137271;-41
2024/04/13 14:50:19;;;;;;;7.10;2.30;;;;;;;23.84;35.70;99606.71;232498;206;136919;-42
2024/04/13 14:55:22;;;;;;;5.90;2.20;;;;;;;23.75;36.14;99608.79;232451;207;151987;-44
2024/04/13 15:00:24;;;;;;;5.00;2.00;;;;;;;23.62;35.89;99611.04;232455;202;138556;-43
2024/04/13 15:05:30;;;;;;;4.70;2.20;;;;;;;23.45;35.96;99610.01;232400;207;136988;-43
2024/04/13 15:10:33;;;;;;;5.10;4.60;;;;;;;23.30;36.41;99606.72;232473;203;152025;-42
2024/04/13 15:15:43;;;;;;;6.70;1.90;;;;;;;23.22;36.25;99604.77;232533;203;140371;-42
2024/04/13 15:20:46;;;;;;;6.50;1.90;;;;;;;23.13;36.56;99602.66;232401;206;137503;-42
2024/04/13 15:25:49;;;;;;;28.10;25.10;;;;;;;23.08;36.68;99598.13;232491;203;151872;-49
2024/04/13 15:30:52;;;;;;;12.70;3.70;;;;;;;23.02;36.91;99592.10;232376;199;137735;-52
2024/04/13 15:35:55;;;;;;;3.80;2.10;;;;;;;22.98;37.25;99593.38;232436;203;137212;-62
2024/04/13 15:40:58;;;;;;;6.10;2.00;;;;;;;22.95;37.32;99592.29;232297;206;151219;-59
2024/04/13 15:46:01;;;;;;;4.40;1.70;;;;;;;22.94;37.47;99592.06;232570;206;138026;-61
2024/04/13 15:51:04;;;;;;;6.40;1.90;;;;;;;22.87;37.35;99584.70;232363;206;137250;-58
2024/04/13 15:56:09;;;;;;;4.90;1.60;;;;;;;22.84;37.45;99583.55;232418;206;151992;-59
2024/04/13 16:01:12;;;;;;;3.60;1.90;;;;;;;22.79;37.58;99586.14;232331;203;137544;-58
2024/04/13 16:06:15;;;;;;;5.30;2.20;;;;;;;22.79;37.63;99586.15;232498;203;137709;-57
2024/04/13 16:11:18;;;;;;;4.70;1.80;;;;;;;23.03;37.25;99583.48;232270;203;151333;-59
2024/04/13 16:16:21;;;;;;;5.10;1.70;;;;;;;23.09;36.79;99580.13;232498;203;137931;-57
2024/04/13 16:21:30;;;;;;;3.90;1.80;;;;;;;23.06;37.09;99577.38;232387;199;137879;-54
2024/04/13 16:26:34;;;;;;;4.70;2.10;;;;;;;22.97;37.03;99576.86;232325;203;152251;-55
2024/04/13 16:31:37;;;;;;;5.80;2.30;;;;;;;22.88;37.21;99580.61;232328;204;137192;-56
2024/04/13 16:36:40;;;;;;;5.90;2.10;;;;;;;22.78;37.40;99585.50;232360;206;138090;-56
2024/04/13 16:41:43;;;;;;;7.70;1.90;;;;;;;22.66;37.77;99583.11;232353;203;151619;-57
2024/04/13 16:46:46;;;;;;;4.80;1.60;;;;;;;22.56;38.16;99576.98;232542;203;138721;-57
2024/04/13 16:51:52;;;;;;;4.40;1.90;;;;;;;22.48;38.43;99578.84;232467;203;137720;-57
2024/04/13 16:56:55;;;;;;;5.30;2.10;;;;;;;22.40;38.66;99576.72;232432;206;151295;-57
2024/04/13 17:01:58;;;;;;;5.70;2.00;;;;;;;22.31;38.96;99572.98;232393;206;137917;-58
2024/04/13 17:07:02;;;;;;;47.90;40.60;;;;;;;22.23;39.36;99574.40;232400;207;138835;-52
2024/04/13 17:12:05;;;;;;;13.40;8.60;;;;;;;22.19;39.78;99573.88;232270;204;151968;-50
2024/04/13 17:17:08;;;;;;;37.70;33.80;;;;;;;22.15;39.96;99570.86;232355;206;136975;-51
2024/04/13 17:22:11;;;;;;;10.50;5.30;;;;;;;22.13;40.24;99569.75;232462;207;137480;-57
2024/04/13 17:27:14;;;;;;;3.70;2.20;;;;;;;22.11;40.29;99574.31;232290;204;151791;-55
2024/04/13 17:32:17;;;;;;;8.80;2.40;;;;;;;22.03;40.47;99567.67;232416;203;136972;-54
2024/04/13 17:37:20;;;;;;;119.70;85.00;;;;;;;21.95;40.72;99568.70;232391;207;140333;-53
2024/04/13 17:42:23;;;;;;;16.20;8.90;;;;;;;21.90;40.99;99565.44;232366;203;151247;-49
2024/04/13 17:47:26;;;;;;;5.80;4.30;;;;;;;21.83;41.48;99567.23;232411;203;137487;-49
2024/04/13 17:52:29;;;;;;;14.70;4.10;;;;;;;21.74;41.70;99562.16;232596;207;137345;-51
2024/04/13 17:57:35;;;;;;;7.90;3.40;;;;;;;21.64;42.04;99565.35;232389;204;151132;-48
2024/04/13 18:02:38;;;;;;;5.20;2.90;;;;;;;21.56;42.46;99562.33;232489;207;138466;-50
2024/04/13 18:07:43;;;;;;;5.10;3.50;;;;;;;21.50;42.69;99567.23;232481;207;138293;-50
2024/04/13 18:12:47;;;;;;;5.90;3.30;;;;;;;21.45;43.05;99573.36;232409;204;151817;-51
2024/04/13 18:17:53;;;;;;;25.40;16.20;;;;;;;21.39;43.12;99579.33;232425;203;137665;-55
2024/04/13 18:22:56;;;;;;;8.00;3.50;;;;;;;21.30;43.46;99577.35;232442;203;137569;-54
2024/04/13 18:28:00;;;;;;;234.40;191.20;;;;;;;21.21;43.67;99587.91;232581;203;152360;-57
2024/04/13 18:33:03;;;;;;;8.50;5.90;;;;;;;21.09;43.75;99588.02;232305;202;137716;-57
2024/04/13 18:38:07;;;;;;;9.10;3.70;;;;;;;20.92;44.06;99589.99;232457;203;137484;-59
2024/04/13 18:43:11;;;;;;;24.10;17.20;;;;;;;20.77;44.49;99592.17;232474;203;151490;-57
2024/04/13 18:48:14;;;;;;;19.00;11.40;;;;;;;20.68;44.86;99594.70;232465;206;137040;-60
2024/04/13 18:53:19;;;;;;;9.50;4.30;;;;;;;20.64;45.06;99593.06;232464;206;138226;-58
2024/04/13 18:58:22;;;;;;;8.40;4.30;;;;;;;20.57;45.15;99592.65;232575;200;151093;-58
2024/04/13 19:03:25;;;;;;;12.10;7.00;;;;;;;20.52;45.52;99592.23;232402;206;137669;-58
2024/04/13 19:08:28;;;;;;;19.50;16.20;;;;;;;20.54;45.60;99586.98;232437;203;137093;-58
2024/04/13 19:13:31;;;;;;;11.30;5.30;;;;;;;20.51;45.85;99579.73;232292;207;151473;-59
2024/04/13 19:18:34;;;;;;;7.80;4.40;;;;;;;20.39;46.02;99585.88;232456;203;140294;-59
2024/04/13 19:23:40;;;;;;;12.80;4.40;;;;;;;20.25;46.38;99582.50;232559;203;136758;-58
2024/04/13 19:28:43;;;;;;;19.20;4.60;;;;;;;20.15;46.67;99572.41;232668;203;151397;-58
2024/04/13 19:33:46;;;;;;;8.40;4.10;;;;;;;19.97;47.46;99572.81;232500;203;137059;-57
2024/04/13 19:38:49;;;;;;;12.40;4.60;;;;;;;19.93;47.54;99570.70;232478;204;137640;-57
2024/04/13 19:43:52;;;;;;;9.90;4.60;;;;;;;19.90;47.55;99572.03;232328;206;151104;-57
2024/04/13 19:48:55;;;;;;;17.10;4.80;;;;;;;19.82;47.89;99576.04;232497;203;137791;-58
2024/04/13 19:53:58;;;;;;;13.40;5.60;;;;;;;19.69;48.35;99572.90;232404;207;138147;-55
2024/04/13 19:59:02;;;;;;;17.60;5.90;;;;;;;19.59;48.72;99575.92;232412;203;152231;-58
2024/04/13 20:04:06;;;;;;;12.00;5.80;;;;;;;19.49;48.96;99573.73;232533;203;137891;-56
2024/04/13 20:09:10;;;;;;;12.50;5.60;;;;;;;19.42;49.52;99569.38;232470;203;137050;-57
2024/04/13 20:14:14;;;;;;;12.00;5.70;;;;;;;19.32;49.64;99571.66;232538;203;151915;-57
2024/04/13 20:19:16;;;;;;;16.10;5.60;;;;;;;19.31;49.78;99566.42;232501;206;138130;-56
2024/04/13 20:24:19;;;;;;;17.90;5.80;;;;;;;19.17;50.44;99571.08;232495;207;138486;-58
2024/04/13 20:29:22;;;;;;;13.70;5.90;;;;;;;18.99;51.16;99566.02;232504;203;151499;-56
2024/04/13 20:34:25;;;;;;;20.40;7.40;;;;;;;18.91;51.60;99561.52;232558;203;136855;-55
2024/04/13 20:39:28;;;;;;;18.80;6.10;;;;;;;18.75;52.45;99560.90;232420;203;137301;-56
2024/04/13 20:44:31;;;;;;;17.40;6.30;;;;;;;18.59;53.11;99549.73;232364;207;151206;-55
2024/04/13 20:49:34;;;;;;;14.80;6.30;;;;;;;18.42;53.57;99538.66;232412;206;137032;-55
2024/04/13 20:54:37;;;;;;;15.00;6.30;;;;;;;18.20;54.32;99536.42;232448;203;136946;-56
2024/04/13 20:59:40;;;;;;;17.20;6.40;;;;;;;18.09;54.63;99532.30;232409;203;151377;-57
2024/04/13 21:04:43;;;;;;;15.70;7.00;;;;;;;18.03;54.63;99531.77;232571;204;137190;-56
2024/04/13 21:09:46;;;;;;;14.20;7.40;;;;;;;18.08;54.58;99524.13;232348;203;137873;-56
2024/04/13 21:14:49;;;;;;;16.50;7.50;;;;;;;18.10;54.55;99517.90;232417;207;151496;-56
2024/04/13 21:19:52;;;;;;;14.40;7.30;;;;;;;18.08;54.63;99512.30;232413;203;137551;-53
2024/04/13 21:24:56;;;;;;;15.50;7.50;;;;;;;17.98;54.99;99510.64;232279;207;138251;-55
2024/04/13 21:30:00;;;;;;;13.00;8.00;;;;;;;17.89;55.42;99503.99;232431;206;151201;-55
2024/04/13 21:35:03;;;;;;;16.40;8.10;;;;;;;17.78;55.94;99499.55;232400;206;137680;-54
2024/04/13 21:40:07;;;;;;;17.80;7.80;;;;;;;17.67;56.29;99495.26;232682;203;137504;-56
2024/04/13 21:45:12;;;;;;;16.60;8.60;;;;;;;17.57;56.72;99496.11;232375;199;152409;-56
2024/04/13 21:50:15;;;;;;;12.80;9.10;;;;;;;17.47;57.11;99492.11;232352;203;137014;-56
2024/04/13 21:55:19;;;;;;;15.20;8.10;;;;;;;17.45;57.09;99489.75;232511;203;138042;-57
2024/04/13 22:00:22;;;;;;;17.20;8.80;;;;;;;17.41;57.58;99484.70;232342;203;151407;-57
2024/04/13 22:05:25;;;;;;;15.10;9.20;;;;;;;17.35;57.58;99490.73;232244;203;137889;-56
2024/04/13 22:10:28;;;;;;;16.60;10.50;;;;;;;17.40;57.24;99491.77;232571;207;138801;-55
2024/04/13 22:15:31;;;;;;;14.80;9.30;;;;;;;17.44;57.15;99488.96;232323;207;151617;-56
2024/04/13 22:20:34;;;;;;;22.50;11.20;;;;;;;17.39;57.30;99483.80;232341;207;136991;-56
2024/04/13 22:25:37;;;;;;;22.70;11.50;;;;;;;17.35;57.40;99481.61;232451;200;138456;-56
2024/04/13 22:30:40;;;;;;;17.70;9.50;;;;;;;17.32;57.48;99475.94;232473;200;152627;-57
2024/04/13 22:35:43;;;;;;;16.90;11.20;;;;;;;17.22;57.95;99472.29;232499;206;138039;-57
2024/04/13 22:40:46;;;;;;;16.10;10.20;;;;;;;17.14;58.38;99468.27;232641;206;140197;-55
2024/04/13 22:45:49;;;;;;;17.50;9.60;;;;;;;17.01;58.61;99466.98;232375;207;151937;-56
2024/04/13 22:50:52;;;;;;;14.30;10.10;;;;;;;16.88;59.19;99467.35;232388;207;141025;-57
2024/04/13 22:55:55;;;;;;;18.20;10.00;;;;;;;16.75;59.75;99462.17;232486;206;138476;-56
2024/04/13 23:00:58;;;;;;;14.80;9.50;;;;;;;16.63;60.23;99455.75;232369;206;152059;-58
2024/04/13 23:06:01;;;;;;;18.70;11.30;;;;;;;16.52;60.57;99459.48;232427;203;137060;-57
2024/04/13 23:11:04;;;;;;;19.80;11.40;;;;;;;16.42;60.82;99452.99;232459;204;137262;-57
2024/04/13 23:16:08;;;;;;;20.80;13.60;;;;;;;16.38;60.94;99453.30;232623;204;152126;-56